Time;durP1;ratioP1;P1;durP2;ratioP2;P2;SDS_P1;SDS_P2;PMS_P1;PMS_P2;Temp;Humidity;BMP_temperature;BMP_pressure;BME280_temperature;BME280_humidity;BME280_pressure;Samples;Min_cycle;Max_cycle;Signal;HPM_P1;HPM_P2
2021/11/17 02:57:16;;;;;;;11.30;8.17;;;5.60;99.90;;;;;;7383393;19;20353;-80
2021/11/17 03:09:55;;;;;;;10.02;7.40;;;5.60;99.90;;;;;;7359290;19;20317;-78
2021/11/17 04:21:20;;;;;;;13.25;10.40;;;5.70;99.90;;;;;;7363603;19;20324;-81
2021/11/17 04:24:52;;;;;;;14.07;11.15;;;5.70;99.90;;;;;;7416923;19;20353;-77
2021/11/17 05:08:26;;;;;;;15.32;11.68;;;5.80;99.90;;;;;;7373551;19;20316;-80
2021/11/17 05:15:23;;;;;;;10.25;8.48;;;5.80;99.90;;;;;;7426633;19;20329;-82
2021/11/17 05:27:49;;;;;;;15.50;11.53;;;5.80;99.90;;;;;;7335990;19;20352;-80
2021/11/17 05:37:26;;;;;;;14.40;10.68;;;5.90;99.90;;;;;;7363900;19;20384;-81
2021/11/17 05:41:00;;;;;;;14.45;10.52;;;5.80;99.90;;;;;;7422873;19;20348;-80
2021/11/17 05:44:49;;;;;;;15.00;11.43;;;5.90;99.90;;;;;;7281372;19;2004441;-80
2021/11/17 05:48:32;;;;;;;16.38;13.18;;;5.80;99.90;;;;;;7384330;19;20353;-80
2021/11/17 07:42:28;;;;;;;21.25;15.15;;;5.50;99.90;;;;;;7377060;19;20313;-81
2021/11/17 07:45:43;;;;;;;20.48;14.70;;;5.60;99.90;;;;;;7402670;19;20336;-81
2021/11/17 08:51:11;;;;;;;20.27;14.50;;;5.80;99.90;;;;;;7371432;19;20347;-79
2021/11/17 08:54:50;;;;;;;19.33;14.30;;;5.90;99.90;;;;;;7416340;19;20337;-80
2021/11/17 09:05:56;;;;;;;17.75;13.02;;;5.90;99.90;;;;;;7420014;19;20351;-80
2021/11/17 09:09:05;;;;;;;18.15;13.90;;;5.90;99.90;;;;;;7390035;19;20329;-81
2021/11/17 09:12:59;;;;;;;18.85;13.95;;;5.70;99.90;;;;;;7342796;19;20364;-81
2021/11/17 09:16:33;;;;;;;22.67;14.17;;;5.90;99.90;;;;;;7366696;19;20385;-80
2021/11/17 09:19:58;;;;;;;18.38;13.25;;;5.90;99.90;;;;;;7418080;19;20378;-80
2021/11/17 09:23:18;;;;;;;18.87;13.43;;;5.90;99.90;;;;;;7263004;19;2004606;-81
2021/11/17 09:33:24;;;;;;;14.95;12.40;;;5.90;99.90;;;;;;7400094;19;20344;-80
2021/11/17 09:36:46;;;;;;;15.25;11.48;;;5.90;99.90;;;;;;7413323;19;20340;-80
2021/11/17 09:39:55;;;;;;;16.23;12.23;;;6.00;99.90;;;;;;7310427;19;20309;-80
2021/11/17 09:42:31;;;;;;;13.60;11.13;;;5.90;99.90;;;;;;7350874;19;20994;-80
2021/11/17 09:46:01;;;;;;;16.65;11.65;;;6.00;99.90;;;;;;7216952;19;2004433;-80
2021/11/17 09:48:50;;;;;;;29.17;13.35;;;6.10;99.90;;;;;;7343841;19;20348;-81
2021/11/17 10:23:08;;;;;;;12.63;9.27;;;6.00;99.90;;;;;;7374394;19;20320;-80
2021/11/17 10:25:59;;;;;;;14.15;10.15;;;5.90;99.90;;;;;;7391825;19;20337;-80
2021/11/17 10:40:56;;;;;;;9.18;6.63;;;5.60;99.90;;;;;;7394199;19;20316;-80
2021/11/17 10:43:29;;;;;;;6.50;5.20;;;5.40;99.90;;;;;;7388419;19;20654;-80
2021/11/17 10:45:58;;;;;;;4.90;4.40;;;5.50;99.90;;;;;;7388876;19;20442;-80
2021/11/17 10:48:30;;;;;;;5.70;4.67;;;5.40;99.90;;;;;;7384118;19;20400;-80
2021/11/17 10:51:14;;;;;;;5.15;4.63;;;5.30;99.90;;;;;;7391699;19;20313;-79
2021/11/17 10:53:46;;;;;;;6.37;5.10;;;5.30;99.90;;;;;;7284496;19;2004585;-80
2021/11/17 10:56:13;;;;;;;6.72;5.07;;;5.30;99.90;;;;;;7392709;19;20351;-80
2021/11/17 10:58:41;;;;;;;6.45;4.85;;;5.10;99.90;;;;;;7385862;19;20344;-80
2021/11/17 11:01:27;;;;;;;7.32;5.68;;;5.40;99.90;;;;;;7387048;19;20323;-80
2021/11/17 11:03:59;;;;;;;8.43;5.38;;;5.10;99.90;;;;;;7382774;19;20328;-81
2021/11/17 11:06:46;;;;;;;5.57;4.72;;;5.00;99.90;;;;;;7387621;19;20320;-79
2021/11/17 11:09:22;;;;;;;5.05;4.05;;;5.00;99.90;;;;;;7385290;19;20300;-81
2021/11/17 11:11:52;;;;;;;5.73;4.97;;;5.10;99.90;;;;;;7387805;19;20324;-81
2021/11/17 11:14:23;;;;;;;5.43;4.77;;;5.10;99.90;;;;;;7385400;19;20880;-79
2021/11/17 11:16:53;;;;;;;5.28;4.55;;;5.10;99.90;;;;;;7387013;19;20367;-79
2021/11/17 11:23:04;;;;;;;4.93;4.43;;;5.00;99.90;;;;;;7394020;19;20304;-80
2021/11/17 11:25:45;;;;;;;5.15;4.30;;;5.10;99.90;;;;;;7288525;19;2004453;-77
2021/11/17 11:28:33;;;;;;;5.57;4.40;;;5.10;99.90;;;;;;7300420;19;2004485;-80
2021/11/17 11:38:50;;;;;;;5.43;4.70;;;5.40;99.90;;;;;;7390744;19;20410;-80
2021/11/17 12:00:50;;;;;;;6.20;4.07;;;5.60;99.90;;;;;;7386840;19;20352;-78
2021/11/17 12:18:33;;;;;;;3.60;3.25;;;5.50;99.90;;;;;;7361311;19;20344;-79
2021/11/17 12:51:20;;;;;;;5.53;4.32;;;5.30;99.90;;;;;;7327476;19;20320;-80
2021/11/17 12:54:39;;;;;;;4.57;4.17;;;5.50;99.90;;;;;;7338882;19;20351;-80
2021/11/17 13:32:04;;;;;;;5.77;4.10;;;5.70;99.90;;;;;;7352094;19;20333;-79
2021/11/17 13:34:49;;;;;;;3.50;3.20;;;5.80;99.90;;;;;;7365958;19;20333;-79
2021/11/17 13:37:17;;;;;;;2.90;2.70;;;5.80;99.90;;;;;;7369282;19;20358;-81
2021/11/17 13:39:45;;;;;;;2.80;2.60;;;5.80;99.90;;;;;;7364709;19;20327;-81
2021/11/17 13:42:11;;;;;;;3.72;3.42;;;5.70;99.90;;;;;;7363608;19;20392;-82
2021/11/17 13:44:40;;;;;;;3.03;2.77;;;5.70;99.90;;;;;;7367036;19;20391;-81
2021/11/17 13:47:08;;;;;;;3.30;3.08;;;5.80;99.90;;;;;;7368407;19;20332;-81
2021/11/17 13:49:36;;;;;;;3.43;3.13;;;5.80;99.90;;;;;;7367288;19;20835;-82
2021/11/17 13:52:04;;;;;;;3.40;3.10;;;5.80;99.90;;;;;;7379045;19;20305;-82
2021/11/17 13:54:32;;;;;;;4.05;3.63;;;5.80;99.90;;;;;;7369010;19;20312;-82
2021/11/17 13:57:02;;;;;;;3.07;2.77;;;5.80;99.90;;;;;;7365060;19;20333;-81
2021/11/17 13:59:30;;;;;;;3.20;2.90;;;5.80;99.90;;;;;;7355845;19;20312;-82
2021/11/17 14:01:58;;;;;;;3.15;2.67;;;5.80;99.90;;;;;;7374835;19;20312;-81
2021/11/17 14:04:25;;;;;;;3.08;2.55;;;5.80;99.90;;;;;;7362745;19;20378;-82
2021/11/17 14:06:53;;;;;;;3.20;2.85;;;5.80;99.90;;;;;;7350056;19;20313;-81
2021/11/17 14:09:20;;;;;;;2.53;2.33;;;5.80;99.90;;;;;;7366693;19;20678;-81
2021/11/17 14:11:47;;;;;;;2.70;2.50;;;5.70;99.90;;;;;;7367790;19;20388;-82
2021/11/17 14:14:14;;;;;;;3.03;2.72;;;5.70;99.90;;;;;;7359525;19;20316;-82
2021/11/17 14:16:41;;;;;;;2.60;2.40;;;5.70;99.90;;;;;;7367484;19;20316;-81
2021/11/17 14:19:08;;;;;;;3.00;2.72;;;5.70;99.90;;;;;;7337809;19;20328;-82
2021/11/17 14:21:35;;;;;;;2.78;2.47;;;5.70;99.90;;;;;;7373449;19;20722;-81
2021/11/17 14:24:03;;;;;;;2.70;2.50;;;5.70;99.90;;;;;;7351219;19;20322;-82
2021/11/17 14:26:53;;;;;;;3.53;2.45;;;5.70;99.90;;;;;;7372752;19;20313;-82
2021/11/17 14:29:53;;;;;;;2.50;2.30;;;5.70;99.90;;;;;;7092047;19;2004631;-82
2021/11/17 14:32:30;;;;;;;3.22;2.92;;;5.80;99.90;;;;;;7359963;19;20451;-82
2021/11/17 14:35:01;;;;;;;2.78;2.58;;;5.70;99.90;;;;;;7326181;19;20297;-82
